YWLM/NTL METAR and TAF weather

Enter ICAO airport designator
Station Type Date Time Source
YWLM METAR 2019/12/06 02:00 UTC NOAA

YWLM 060200Z 29015KT 6000 NSC 34/01 Q1004


Station Type Date Time Source
YWLM Decoded METAR 2019/12/06 02:00 UTC NOAA

Station name not available
Dec 05, 2019 - 09:00 PM EST / 2019.12.06 0200 UTC
Wind: from the WNW (290 degrees) at 17 MPH (15 KT):0
Visibility: 3 mile(s):0
Temperature: 93 F (34 C)
Dew Point: 33 F (1 C)
Relative Humidity: 12%
Pressure (altimeter): 29.65 in. Hg (1004 hPa)
ob: YWLM 060200Z 29015KT 6000 NSC 34/01 Q1004
cycle: 2

Station Type Date Time Source
YWLM TAF 2019/12/05 16:33 UTC NOAA

TAF TAF
AMD YWLM 051630Z 0516/0618 20008KT 8000 FU SCT005
FM052100 30010KT 8000 FU NSC
FM060100 30015G25KT 9000 FU NSC
FM060400 13013KT 9000 FU NSC
FM060700 06010KT 9000 FU NSC
FM061400 18012KT 9000 FU BKN015
TEMPO 0516/0519 BKN005 PROB40 0518/0521 3000 BR FU SCT003 PROB40 0521/0601 4000 FU

Example: see airport list